Time;durP1;ratioP1;P1;durP2;ratioP2;P2;SDS_P1;SDS_P2;PMS_P1;PMS_P2;Temp;Humidity;BMP_temperature;BMP_pressure;BME280_temperature;BME280_humidity;BME280_pressure;Samples;Min_cycle;Max_cycle;Signal;HPM_P1;HPM_P2
2022/12/16 00:02:03;;;;;;;0.10;0.10;;;-2.50;99.90;-4.20;95865.00;;;;5085345;28;20594;-76
2022/12/16 00:04:31;;;;;;;0.10;0.10;;;-2.50;99.90;-4.20;95855.00;;;;5070116;28;20193;-77
2022/12/16 00:06:59;;;;;;;0.20;0.20;;;-2.40;99.90;-4.10;95854.00;;;;5082005;28;20205;-77
2022/12/16 00:09:28;;;;;;;0.10;0.10;;;-2.40;99.90;-4.10;95807.00;;;;5082143;28;20221;-76
2022/12/16 00:12:01;;;;;;;0.10;0.10;;;-2.40;99.90;-4.10;95842.00;;;;5075923;28;20193;-75
2022/12/16 00:14:29;;;;;;;0.10;0.10;;;-2.40;99.90;-4.10;95837.00;;;;5066557;28;20202;-75
2022/12/16 00:16:57;;;;;;;0.20;0.20;;;-2.40;99.90;-4.10;95840.00;;;;5074174;28;20202;-76
2022/12/16 00:19:26;;;;;;;0.10;0.10;;;-2.30;99.90;-4.10;95839.00;;;;5080452;28;20213;-77
2022/12/16 00:21:54;;;;;;;0.10;0.10;;;-2.30;99.90;-4.00;95837.00;;;;5079653;28;20217;-77
2022/12/16 00:24:22;;;;;;;0.20;0.20;;;-2.30;99.90;-4.10;95839.00;;;;5079849;28;20198;-77
2022/12/16 00:26:51;;;;;;;0.20;0.20;;;-2.30;99.90;-4.10;95835.00;;;;5083207;28;20595;-77
2022/12/16 00:29:19;;;;;;;0.10;0.10;;;-2.30;99.90;-4.00;95864.00;;;;5082385;28;20550;-77
2022/12/16 00:31:47;;;;;;;0.13;0.13;;;-2.30;99.90;-4.00;95828.00;;;;5078645;28;20615;-76
2022/12/16 00:34:16;;;;;;;0.17;0.17;;;-2.30;99.90;-4.00;95846.00;;;;5075410;28;20276;-76
2022/12/16 00:36:45;;;;;;;0.10;0.10;;;-2.30;99.90;-4.00;95830.00;;;;5075293;28;20746;-76
2022/12/16 00:39:13;;;;;;;0.10;0.10;;;-2.30;99.90;-4.00;95836.00;;;;5085415;28;20218;-76
2022/12/16 00:41:41;;;;;;;0.10;0.10;;;-2.20;99.90;-3.90;95836.00;;;;5079032;28;20210;-77
2022/12/16 00:44:09;;;;;;;0.20;0.20;;;-2.20;99.90;-3.90;95829.00;;;;5070776;28;20632;-76
2022/12/16 00:46:37;;;;;;;0.20;0.20;;;-2.20;99.90;-3.80;95842.00;;;;5071662;28;20204;-76
2022/12/16 00:49:06;;;;;;;0.20;0.20;;;-2.20;99.90;-3.80;95828.00;;;;5078084;28;20221;-75
2022/12/16 00:51:34;;;;;;;0.15;0.15;;;-2.20;99.90;-3.90;95836.00;;;;5081244;28;20197;-76
2022/12/16 00:54:04;;;;;;;0.10;0.10;;;-2.20;99.90;-3.90;95830.00;;;;5083046;28;20454;-76
2022/12/16 00:56:32;;;;;;;0.10;0.10;;;-2.20;99.90;-3.80;95824.00;;;;5072146;28;20197;-77
2022/12/16 00:59:00;;;;;;;0.10;0.10;;;-2.10;99.90;-3.80;95830.00;;;;5078249;28;20259;-76
2022/12/16 01:01:28;;;;;;;0.10;0.10;;;-2.10;99.90;-3.90;95830.00;;;;5070485;28;20216;-76
2022/12/16 01:03:57;;;;;;;0.20;0.20;;;-2.20;99.90;-3.90;95846.00;;;;5084198;28;20197;-76
2022/12/16 01:06:25;;;;;;;0.15;0.15;;;-2.20;99.90;-4.00;95838.00;;;;5074788;28;20294;-76
2022/12/16 01:08:53;;;;;;;0.10;0.10;;;-2.20;99.90;-3.90;95852.00;;;;5084513;28;20212;-76
2022/12/16 01:11:23;;;;;;;0.20;0.20;;;-2.20;99.90;-3.90;95828.00;;;;5078365;28;20556;-76
2022/12/16 01:13:52;;;;;;;0.10;0.10;;;-2.20;99.90;-4.00;95829.00;;;;5079143;28;20197;-76
2022/12/16 01:16:22;;;;;;;0.20;0.20;;;-2.20;99.90;-4.00;95841.00;;;;5088715;28;20193;-76
2022/12/16 01:18:52;;;;;;;0.10;0.10;;;-2.20;99.90;-3.90;95825.00;;;;5079142;28;20282;-76
2022/12/16 01:21:22;;;;;;;0.20;0.20;;;-2.20;99.90;-4.10;95862.00;;;;5088168;28;20193;-77
2022/12/16 01:23:50;;;;;;;0.20;0.20;;;-2.30;99.90;-4.00;95823.00;;;;5084848;28;20197;-76
2022/12/16 01:26:23;;;;;;;0.20;0.20;;;-2.30;99.90;-4.00;95832.00;;;;5104189;28;20216;-78
2022/12/16 01:28:51;;;;;;;0.10;0.10;;;-2.20;99.90;-4.00;95835.00;;;;5088038;28;20228;-78
2022/12/16 01:31:23;;;;;;;0.10;0.10;;;-2.30;99.90;-4.00;95836.00;;;;5075416;28;20194;-78
2022/12/16 01:33:51;;;;;;;0.20;0.20;;;-2.20;99.90;-3.90;95825.00;;;;5083779;28;20197;-78
2022/12/16 01:36:20;;;;;;;0.20;0.20;;;-2.20;99.90;-3.90;95829.00;;;;5084548;28;20751;-79
2022/12/16 01:38:48;;;;;;;0.20;0.20;;;-2.20;99.90;-3.90;95832.00;;;;5089865;28;20258;-78
2022/12/16 01:41:17;;;;;;;0.20;0.20;;;-2.20;99.90;-4.00;95866.00;;;;5088918;28;20732;-78
2022/12/16 01:43:47;;;;;;;0.20;0.20;;;-2.20;99.90;-3.80;95772.00;;;;5091317;28;20919;-77
2022/12/16 01:46:23;;;;;;;0.10;0.10;;;-2.10;99.90;-3.70;95775.00;;;;5086676;28;20226;-77
2022/12/16 01:48:57;;;;;;;0.20;0.20;;;-2.10;99.90;-3.70;95828.00;;;;5090210;28;20246;-77
2022/12/16 01:51:32;;;;;;;0.20;0.20;;;-2.00;99.90;-3.80;95825.00;;;;5080972;28;20623;-77
2022/12/16 01:54:06;;;;;;;0.20;0.20;;;-2.10;99.90;-3.80;95827.00;;;;5091653;28;20199;-77
2022/12/16 01:56:39;;;;;;;0.20;0.20;;;-2.10;99.90;-3.90;95788.00;;;;5082288;28;20654;-77
2022/12/16 01:59:11;;;;;;;0.20;0.20;;;-2.20;99.90;-3.90;95840.00;;;;5083705;28;20558;-76
2022/12/16 02:01:39;;;;;;;0.10;0.10;;;-2.20;99.90;-3.90;95839.00;;;;5096232;28;20213;-76
2022/12/16 02:04:08;;;;;;;0.20;0.20;;;-2.20;99.90;-4.40;95844.00;;;;5080516;28;20182;-77
2022/12/16 02:06:36;;;;;;;0.20;0.20;;;-2.30;99.90;-4.10;95839.00;;;;5084656;28;20198;-77
2022/12/16 02:09:10;;;;;;;0.20;0.20;;;-2.30;99.90;-4.10;95834.00;;;;5079732;28;20268;-77
2022/12/16 02:12:18;;;;;;;0.20;0.20;;;-2.40;99.90;-4.10;95828.00;;;;5089157;28;20274;-77
2022/12/16 02:15:24;;;;;;;0.20;0.20;;;-2.40;99.90;-4.00;95836.00;;;;5071030;28;20900;-77
2022/12/16 02:18:02;;;;;;;0.20;0.20;;;-2.30;99.90;-4.10;95826.00;;;;5078871;28;20224;-77
2022/12/16 02:21:20;;;;;;;0.20;0.20;;;-2.40;99.90;-4.20;95815.00;;;;5080485;28;20193;-77
2022/12/16 02:24:50;;;;;;;0.20;0.20;;;-2.40;99.90;-4.10;95819.00;;;;5081349;28;20225;-77
2022/12/16 02:27:53;;;;;;;0.20;0.20;;;-2.40;99.90;-4.00;95832.00;;;;5080918;28;20204;-75
2022/12/16 02:30:53;;;;;;;0.20;0.20;;;-2.30;99.90;-4.00;95823.00;;;;5088493;28;20197;-76
2022/12/16 02:33:52;;;;;;;0.10;0.10;;;-2.30;99.90;-4.00;95829.00;;;;5078494;28;20208;-77
2022/12/16 02:36:50;;;;;;;0.20;0.20;;;-2.30;99.90;-3.90;95829.00;;;;5084213;28;20804;-75
2022/12/16 02:39:24;;;;;;;0.20;0.20;;;-2.30;99.90;-4.00;95751.00;;;;5074312;28;20222;-75
2022/12/16 02:42:02;;;;;;;0.15;0.15;;;-2.30;99.90;-4.00;95819.00;;;;5080987;28;20230;-75
2022/12/16 02:44:44;;;;;;;0.20;0.20;;;-2.30;99.90;-4.00;95830.00;;;;5077734;28;20201;-75
2022/12/16 02:47:14;;;;;;;0.20;0.20;;;-2.30;99.90;-4.10;95834.00;;;;5080770;28;20287;-75
2022/12/16 02:49:51;;;;;;;0.20;0.20;;;-2.30;99.90;-4.10;95745.00;;;;5080726;28;20213;-75
2022/12/16 02:52:24;;;;;;;0.20;0.20;;;-2.40;99.90;-4.10;95862.00;;;;5084128;28;20200;-75
2022/12/16 02:54:56;;;;;;;0.20;0.20;;;-2.40;99.90;-4.10;95775.00;;;;5079536;28;20202;-74
2022/12/16 02:57:52;;;;;;;0.20;0.20;;;-2.40;99.90;-4.00;95841.00;;;;5083540;28;20744;-75
2022/12/16 03:00:22;;;;;;;0.20;0.20;;;-2.40;99.90;-4.10;95847.00;;;;5078535;28;20252;-75
2022/12/16 03:03:02;;;;;;;0.20;0.20;;;-2.40;99.90;-4.10;95835.00;;;;5071934;28;20271;-75
2022/12/16 03:05:33;;;;;;;0.20;0.20;;;-2.40;99.90;-4.00;95841.00;;;;5077626;28;20227;-76
2022/12/16 03:08:07;;;;;;;0.20;0.20;;;-2.40;99.90;-4.00;95854.00;;;;5084057;28;20217;-76
2022/12/16 03:10:44;;;;;;;0.20;0.20;;;-2.40;99.90;-4.40;95852.00;;;;5091253;28;20339;-76
2022/12/16 03:13:17;;;;;;;0.15;0.15;;;-2.40;99.90;-3.90;95842.00;;;;5079842;28;20202;-74
2022/12/16 03:15:48;;;;;;;0.20;0.20;;;-2.30;99.90;-4.00;95844.00;;;;5080273;28;20201;-73
2022/12/16 03:18:20;;;;;;;0.10;0.10;;;-2.30;99.90;-4.00;95846.00;;;;5087383;28;20645;-75
2022/12/16 03:20:55;;;;;;;0.20;0.20;;;-2.40;99.90;-4.00;95851.00;;;;5075049;28;20255;-74
2022/12/16 03:23:31;;;;;;;0.20;0.20;;;-2.40;99.90;-4.10;95857.00;;;;5077326;28;20224;-74
2022/12/16 03:26:08;;;;;;;0.20;0.20;;;-2.40;99.90;-4.10;95848.00;;;;5065039;28;20203;-75
2022/12/16 03:28:48;;;;;;;0.20;0.20;;;-2.40;99.90;-4.10;95852.00;;;;5074189;28;20273;-74
2022/12/16 03:31:30;;;;;;;0.20;0.20;;;-2.40;99.90;-4.10;95852.00;;;;5080816;28;20201;-74
2022/12/16 03:34:12;;;;;;;0.20;0.20;;;-2.40;99.90;-4.20;95864.00;;;;5073112;28;20227;-74
2022/12/16 03:36:45;;;;;;;0.20;0.20;;;-2.50;99.90;-4.30;95855.00;;;;5079381;28;20305;-74
2022/12/16 03:39:15;;;;;;;0.20;0.20;;;-2.50;99.90;-4.30;95862.00;;;;5074768;28;20209;-74
2022/12/16 03:41:44;;;;;;;0.20;0.20;;;-2.50;99.90;-4.30;95851.00;;;;5083799;28;20673;-74
2022/12/16 03:44:12;;;;;;;0.20;0.20;;;-2.60;99.90;-4.30;95862.00;;;;5079985;28;20221;-75
2022/12/16 03:46:41;;;;;;;0.20;0.20;;;-2.60;99.90;-4.30;95737.00;;;;5077130;28;20207;-74
2022/12/16 03:49:10;;;;;;;0.20;0.20;;;-2.60;99.90;-4.30;95860.00;;;;5083989;28;20249;-75
2022/12/16 03:51:38;;;;;;;0.20;0.20;;;-2.60;99.90;-4.30;95870.00;;;;5078963;28;20192;-74
2022/12/16 03:54:06;;;;;;;0.20;0.20;;;-2.60;99.90;-4.20;95859.00;;;;5075341;28;20198;-75
2022/12/16 03:56:34;;;;;;;0.20;0.20;;;-2.50;99.90;-4.30;95868.00;;;;5080356;28;20193;-75
2022/12/16 03:59:03;;;;;;;0.20;0.20;;;-2.60;99.90;-4.30;95866.00;;;;5085743;28;20710;-75
2022/12/16 04:01:31;;;;;;;0.20;0.20;;;-2.60;99.90;-4.40;95861.00;;;;5072671;28;20602;-75
2022/12/16 04:03:59;;;;;;;0.20;0.20;;;-2.70;99.90;-4.40;95860.00;;;;5082490;28;20221;-75
2022/12/16 04:06:28;;;;;;;0.20;0.20;;;-2.70;99.90;-4.50;95870.00;;;;5079459;28;20215;-75
2022/12/16 04:08:56;;;;;;;0.20;0.20;;;-2.70;99.90;-4.40;95881.00;;;;5074284;28;20214;-74
2022/12/16 04:25:27;;;;;;;0.20;0.20;;;-2.70;99.90;-4.40;95887.00;;;;5081123;28;20205;-74
2022/12/16 04:27:57;;;;;;;0.20;0.20;;;-2.70;99.90;-4.40;95890.00;;;;5078289;28;20247;-74
2022/12/16 04:30:27;;;;;;;0.20;0.20;;;-2.70;99.90;-4.40;95916.00;;;;5077866;28;20193;-75
